createdAt,value
2017-10-27T00:00:07.230Z,19.700000000000003
2017-10-27T00:02:07.189Z,20.799999999999997
2017-10-27T00:04:07.325Z,19.700000000000003
2017-10-27T00:06:07.605Z,20.200000000000003
2017-10-27T00:08:07.669Z,20.799999999999997
2017-10-27T00:10:08.640Z,19.700000000000003
2017-10-27T00:12:08.131Z,20.200000000000003
2017-10-27T00:14:08.212Z,20.799999999999997
2017-10-27T00:16:08.312Z,19.700000000000003
2017-10-27T00:18:08.435Z,19.700000000000003
2017-10-27T00:20:08.566Z,19.700000000000003
2017-10-27T00:22:08.710Z,20.200000000000003
2017-10-27T00:24:08.851Z,20.200000000000003
2017-10-27T00:26:08.974Z,20.200000000000003
2017-10-27T00:28:09.047Z,19.700000000000003
2017-10-27T00:30:09.215Z,20.799999999999997
2017-10-27T00:32:09.313Z,19.700000000000003
2017-10-27T00:34:10.338Z,20.799999999999997
2017-10-27T00:36:09.622Z,20.799999999999997
2017-10-27T00:38:09.935Z,21.299999999999997
2017-10-27T00:40:09.914Z,20.799999999999997
2017-10-27T00:42:10.044Z,21.299999999999997
2017-10-27T00:44:10.249Z,21.9
2017-10-27T00:46:10.387Z,21.9
2017-10-27T00:48:10.590Z,21.299999999999997
2017-10-27T00:50:10.685Z,20.799999999999997
2017-10-27T00:52:10.881Z,21.9
2017-10-27T00:54:10.953Z,21.9
2017-10-27T00:56:11.177Z,21.9
2017-10-27T00:58:11.205Z,21.9
2017-10-27T01:00:11.355Z,21.9
2017-10-27T01:02:11.493Z,21.9
2017-10-27T01:04:11.580Z,21.299999999999997
2017-10-27T01:06:11.700Z,20.799999999999997
2017-10-27T01:08:11.868Z,20.200000000000003
2017-10-27T01:10:12.036Z,20.799999999999997
2017-10-27T01:12:12.155Z,20.799999999999997
2017-10-27T01:14:12.263Z,20.200000000000003
2017-10-27T01:16:12.419Z,20.200000000000003
2017-10-27T01:18:12.522Z,19.700000000000003
2017-10-27T01:20:12.629Z,19.700000000000003
2017-10-27T01:22:12.800Z,20.200000000000003
2017-10-27T01:24:12.955Z,20.200000000000003
2017-10-27T01:26:13.070Z,20.799999999999997
2017-10-27T01:28:13.193Z,20.200000000000003
2017-10-27T01:30:13.288Z,20.200000000000003
2017-10-27T01:32:13.462Z,20.799999999999997
2017-10-27T01:34:13.615Z,20.200000000000003
2017-10-27T01:36:13.883Z,20.799999999999997
2017-10-27T01:38:14.007Z,19.700000000000003
2017-10-27T01:40:14.135Z,19.700000000000003
2017-10-27T01:42:14.552Z,19.700000000000003
2017-10-27T01:44:14.579Z,19.700000000000003
2017-10-27T01:46:14.650Z,20.200000000000003
2017-10-27T01:48:14.906Z,19.700000000000003
2017-10-27T01:50:14.985Z,20.200000000000003
2017-10-27T01:52:15.182Z,19.700000000000003
2017-10-27T01:54:15.213Z,20.799999999999997
2017-10-27T01:56:15.555Z,20.200000000000003
2017-10-27T01:58:15.498Z,20.799999999999997
2017-10-27T02:00:15.829Z,20.799999999999997
2017-10-27T02:02:15.795Z,20.799999999999997
2017-10-27T02:04:15.927Z,20.799999999999997
2017-10-27T02:06:16.106Z,20.799999999999997
2017-10-27T02:08:16.376Z,20.200000000000003
2017-10-27T02:10:16.523Z,20.200000000000003
2017-10-27T02:12:16.638Z,20.200000000000003
2017-10-27T02:14:16.847Z,20.799999999999997
2017-10-27T02:16:16.954Z,20.799999999999997
2017-10-27T02:18:17.057Z,20.799999999999997
2017-10-27T02:20:17.283Z,20.799999999999997
2017-10-27T02:22:17.354Z,20.799999999999997
2017-10-27T02:24:17.552Z,21.299999999999997
2017-10-27T02:26:17.689Z,20.799999999999997
2017-10-27T02:28:17.823Z,21.299999999999997
2017-10-27T02:30:17.942Z,21.9
2017-10-27T02:32:18.158Z,21.299999999999997
2017-10-27T02:34:18.282Z,21.9
2017-10-27T02:36:18.418Z,21.9
2017-10-27T02:38:18.688Z,21.299999999999997
2017-10-27T02:40:18.700Z,21.9
2017-10-27T02:42:18.996Z,21.299999999999997
2017-10-27T02:44:19.004Z,21.299999999999997
2017-10-27T02:46:19.145Z,21.9
2017-10-27T02:48:19.238Z,21.9
2017-10-27T02:50:19.386Z,21.9
2017-10-27T02:52:19.505Z,21.9
2017-10-27T02:54:19.596Z,21.299999999999997
2017-10-27T02:56:19.958Z,21.9
2017-10-27T02:58:20.260Z,21.9
2017-10-27T03:00:20.339Z,21.9
2017-10-27T03:02:20.540Z,21.299999999999997
2017-10-27T03:04:20.641Z,21.299999999999997
2017-10-27T03:06:20.798Z,21.299999999999997
2017-10-27T03:08:20.904Z,21.299999999999997
2017-10-27T03:10:21.004Z,21.299999999999997
2017-10-27T03:12:21.145Z,20.799999999999997
2017-10-27T03:14:21.299Z,20.799999999999997
2017-10-27T03:16:21.473Z,21.299999999999997
2017-10-27T03:18:21.571Z,20.799999999999997
2017-10-27T03:20:22.894Z,21.9
2017-10-27T03:22:21.837Z,21.299999999999997
2017-10-27T03:24:21.971Z,20.799999999999997
2017-10-27T03:26:22.045Z,20.799999999999997
2017-10-27T03:28:22.160Z,21.9
2017-10-27T03:30:23.129Z,20.799999999999997
2017-10-27T03:32:22.480Z,21.299999999999997
2017-10-27T03:34:22.621Z,20.799999999999997
2017-10-27T03:36:22.924Z,20.799999999999997
2017-10-27T03:38:23.003Z,21.299999999999997
2017-10-27T03:40:23.125Z,21.299999999999997
2017-10-27T03:42:23.266Z,20.799999999999997
2017-10-27T03:44:23.369Z,21.299999999999997
2017-10-27T03:46:23.494Z,20.799999999999997
2017-10-27T03:48:23.639Z,20.799999999999997
2017-10-27T03:50:23.777Z,20.799999999999997
2017-10-27T03:52:23.912Z,20.799999999999997
2017-10-27T03:54:23.991Z,20.799999999999997
2017-10-27T03:56:24.127Z,20.799999999999997
2017-10-27T03:58:24.270Z,20.799999999999997
2017-10-27T04:00:24.433Z,20.799999999999997
2017-10-27T04:02:24.522Z,20.799999999999997
2017-10-27T04:04:24.667Z,20.799999999999997
2017-10-27T04:06:24.825Z,20.799999999999997
2017-10-27T04:08:24.998Z,20.799999999999997
2017-10-27T04:10:25.065Z,21.299999999999997
2017-10-27T04:12:25.226Z,20.200000000000003
2017-10-27T04:14:25.442Z,20.799999999999997
2017-10-27T04:16:25.495Z,20.799999999999997
2017-10-27T04:18:25.659Z,20.799999999999997
2017-10-27T04:20:25.857Z,20.799999999999997
2017-10-27T04:22:26.131Z,20.799999999999997
2017-10-27T04:24:26.305Z,20.799999999999997
2017-10-27T04:26:26.388Z,21.299999999999997
2017-10-27T04:28:26.991Z,20.799999999999997
2017-10-27T04:30:26.664Z,20.799999999999997
2017-10-27T04:32:26.815Z,20.799999999999997
2017-10-27T04:34:26.932Z,21.299999999999997
2017-10-27T04:36:27.095Z,20.799999999999997
2017-10-27T04:38:27.262Z,20.799999999999997
2017-10-27T04:40:27.371Z,20.799999999999997
2017-10-27T04:42:27.587Z,20.799999999999997
2017-10-27T04:44:27.714Z,20.799999999999997
2017-10-27T04:46:27.832Z,20.799999999999997
2017-10-27T04:48:27.957Z,21.299999999999997
2017-10-27T04:50:28.089Z,20.799999999999997
2017-10-27T04:52:28.359Z,21.9
2017-10-27T04:54:28.748Z,21.299999999999997
2017-10-27T04:56:28.464Z,21.9
2017-10-27T04:58:28.602Z,21.9
2017-10-27T05:00:28.765Z,21.9
2017-10-27T05:02:28.892Z,21.9
2017-10-27T05:04:28.999Z,21.9
2017-10-27T05:06:29.193Z,21.9
2017-10-27T05:08:29.239Z,21.9
2017-10-27T05:10:29.390Z,21.299999999999997
2017-10-27T05:12:29.632Z,21.299999999999997
2017-10-27T05:14:29.596Z,21.9
2017-10-27T05:16:29.774Z,21.9
2017-10-27T05:18:29.879Z,21.299999999999997
2017-10-27T05:20:30.031Z,21.299999999999997
2017-10-27T05:22:30.064Z,21.299999999999997
2017-10-27T05:24:30.408Z,21.9
2017-10-27T05:26:30.354Z,21.9
2017-10-27T05:28:30.618Z,21.9
2017-10-27T05:30:30.604Z,21.299999999999997
2017-10-27T05:32:30.710Z,21.299999999999997
2017-10-27T05:34:30.968Z,21.299999999999997
2017-10-27T05:36:31.065Z,21.299999999999997
2017-10-27T05:38:31.094Z,21.299999999999997
2017-10-27T05:40:31.197Z,20.799999999999997
2017-10-27T05:42:31.383Z,20.799999999999997
2017-10-27T05:44:31.514Z,20.799999999999997
2017-10-27T05:46:31.654Z,20.799999999999997
2017-10-27T05:48:31.798Z,20.200000000000003
2017-10-27T05:50:31.971Z,20.799999999999997
2017-10-27T05:52:32.067Z,21.299999999999997
2017-10-27T05:54:32.262Z,20.799999999999997
2017-10-27T05:56:32.319Z,20.799999999999997
2017-10-27T05:58:32.460Z,20.799999999999997
2017-10-27T06:00:32.573Z,20.799999999999997
2017-10-27T06:02:32.721Z,20.799999999999997
2017-10-27T06:04:32.815Z,21.299999999999997
2017-10-27T06:06:32.959Z,20.799999999999997
2017-10-27T06:08:33.250Z,20.799999999999997
2017-10-27T06:10:33.293Z,20.799999999999997
2017-10-27T06:12:33.570Z,20.799999999999997
2017-10-27T06:14:33.662Z,20.799999999999997
2017-10-27T06:16:33.684Z,20.799999999999997
2017-10-27T06:18:33.813Z,21.299999999999997
2017-10-27T06:20:33.910Z,21.299999999999997
2017-10-27T06:22:34.053Z,21.299999999999997
2017-10-27T06:24:34.325Z,21.299999999999997
2017-10-27T06:26:34.460Z,21.299999999999997
2017-10-27T06:28:34.559Z,20.799999999999997
2017-10-27T06:30:34.790Z,21.299999999999997
2017-10-27T06:32:34.829Z,21.299999999999997
2017-10-27T06:34:34.977Z,20.799999999999997
2017-10-27T06:36:35.080Z,21.299999999999997
2017-10-27T06:38:35.260Z,20.799999999999997
2017-10-27T06:40:35.380Z,20.799999999999997
2017-10-27T06:42:35.521Z,20.799999999999997
2017-10-27T06:44:35.671Z,21.299999999999997
2017-10-27T06:46:35.810Z,21.299999999999997
2017-10-27T06:48:35.919Z,21.299999999999997
2017-10-27T06:50:36.058Z,21.299999999999997
2017-10-27T06:52:36.216Z,21.299999999999997
2017-10-27T06:54:36.368Z,20.799999999999997
2017-10-27T06:56:36.482Z,21.299999999999997
2017-10-27T06:58:36.659Z,20.799999999999997
2017-10-27T07:00:36.742Z,21.299999999999997
2017-10-27T07:02:36.883Z,21.299999999999997
2017-10-27T07:04:37.026Z,20.799999999999997
2017-10-27T07:06:37.231Z,21.9
2017-10-27T07:08:38.456Z,21.9
2017-10-27T07:10:37.569Z,21.299999999999997
2017-10-27T07:12:37.736Z,20.799999999999997
2017-10-27T07:14:38.041Z,20.799999999999997
2017-10-27T07:16:38.021Z,21.299999999999997
2017-10-27T07:18:38.250Z,21.299999999999997
2017-10-27T07:20:38.413Z,20.799999999999997
2017-10-27T07:22:38.444Z,21.299999999999997
2017-10-27T07:24:38.567Z,20.799999999999997
2017-10-27T07:26:38.867Z,21.299999999999997
2017-10-27T07:28:38.905Z,21.299999999999997
2017-10-27T07:30:39.098Z,21.299999999999997
2017-10-27T07:32:39.379Z,21.9
2017-10-27T07:34:39.459Z,21.299999999999997
2017-10-27T07:36:39.564Z,21.299999999999997
2017-10-27T07:38:39.690Z,21.9
2017-10-27T07:40:39.831Z,21.299999999999997
2017-10-27T07:42:39.945Z,20.799999999999997
2017-10-27T07:44:40.079Z,21.299999999999997
2017-10-27T07:46:40.214Z,20.799999999999997
2017-10-27T07:48:40.349Z,21.299999999999997
2017-10-27T07:50:40.502Z,21.299999999999997
2017-10-27T07:52:40.586Z,21.299999999999997
2017-10-27T07:54:40.836Z,21.299999999999997
2017-10-27T07:56:45.912Z,21.299999999999997
2017-10-27T07:58:41.043Z,20.799999999999997
2017-10-27T08:00:41.173Z,21.9
2017-10-27T08:02:41.262Z,21.299999999999997
2017-10-27T08:04:41.430Z,20.799999999999997
2017-10-27T08:06:42.825Z,21.9
2017-10-27T08:08:41.682Z,21.299999999999997
2017-10-27T08:10:41.884Z,20.799999999999997
2017-10-27T08:12:41.969Z,21.299999999999997
2017-10-27T08:14:42.053Z,21.299999999999997
2017-10-27T08:16:42.178Z,21.299999999999997
2017-10-27T08:18:42.344Z,21.9
2017-10-27T08:20:42.471Z,21.9
2017-10-27T08:22:42.722Z,21.299999999999997
2017-10-27T08:24:42.747Z,21.9
2017-10-27T08:26:42.883Z,21.9
2017-10-27T08:28:43.010Z,21.299999999999997
2017-10-27T08:30:43.163Z,21.9
2017-10-27T08:32:43.272Z,21.9
2017-10-27T08:34:43.433Z,21.9
2017-10-27T08:36:44.418Z,21.299999999999997
2017-10-27T08:38:43.805Z,21.9
2017-10-27T08:40:43.878Z,21.9
2017-10-27T08:42:44.042Z,21.9
2017-10-27T08:44:44.307Z,21.9
2017-10-27T08:46:44.401Z,21.9
2017-10-27T08:48:44.699Z,21.9
2017-10-27T08:50:44.684Z,21.9
2017-10-27T08:52:44.823Z,21.9
2017-10-27T08:54:45.128Z,21.9
2017-10-27T08:56:45.102Z,21.9
2017-10-27T08:58:45.218Z,21.9
2017-10-27T09:00:45.425Z,22.4
2017-10-27T09:02:45.541Z,21.9
2017-10-27T09:04:45.724Z,21.9
2017-10-27T09:06:45.837Z,21.9
2017-10-27T09:08:45.896Z,21.9
2017-10-27T09:10:46.038Z,21.9
2017-10-27T09:12:46.184Z,21.9
2017-10-27T09:14:46.441Z,21.9
2017-10-27T09:16:46.451Z,21.9
2017-10-27T09:18:46.644Z,21.9
2017-10-27T09:20:46.700Z,21.9
2017-10-27T09:22:46.884Z,21.9
2017-10-27T09:24:47.077Z,21.9
2017-10-27T09:26:47.188Z,21.9
2017-10-27T09:28:47.313Z,22.4
2017-10-27T09:30:47.477Z,21.9
2017-10-27T09:32:47.603Z,21.299999999999997
2017-10-27T09:34:47.819Z,21.9
2017-10-27T09:36:47.777Z,21.9
2017-10-27T09:38:47.944Z,21.9
2017-10-27T09:40:48.331Z,22.9
2017-10-27T09:42:48.515Z,22.4
2017-10-27T09:44:48.623Z,22.4
2017-10-27T09:46:48.749Z,22.9
2017-10-27T09:48:48.867Z,21.9
2017-10-27T09:50:48.996Z,22.9
2017-10-27T09:52:49.091Z,21.9
2017-10-27T09:54:49.300Z,22.9
2017-10-27T09:56:49.331Z,22.4
2017-10-27T09:58:49.503Z,22.4
2017-10-27T10:00:49.612Z,21.9
2017-10-27T10:02:49.750Z,21.9
2017-10-27T10:04:49.839Z,22.9
2017-10-27T10:06:50.059Z,22.9
2017-10-27T10:08:50.218Z,21.9
2017-10-27T10:10:50.358Z,22.4
2017-10-27T10:12:50.649Z,22.9
2017-10-27T10:14:50.592Z,22.4
2017-10-27T10:16:50.745Z,22.9
2017-10-27T10:18:51.003Z,22.9
2017-10-27T10:20:51.152Z,22.9
2017-10-27T10:22:51.256Z,22.9
2017-10-27T10:24:51.594Z,22.9
2017-10-27T10:26:51.649Z,22.4
2017-10-27T10:28:51.814Z,22.4
2017-10-27T10:30:51.938Z,22.9
2017-10-27T10:32:52.042Z,22.4
2017-10-27T10:34:52.166Z,22.4
2017-10-27T10:36:52.316Z,22.9
2017-10-27T10:38:52.497Z,22.9
2017-10-27T10:40:52.621Z,22.4
2017-10-27T10:42:52.724Z,22.9
2017-10-27T10:44:52.960Z,22.9
2017-10-27T10:46:53.074Z,22.9
2017-10-27T10:48:53.130Z,22.4
2017-10-27T10:50:53.276Z,22.4
2017-10-27T10:52:53.411Z,22.9
2017-10-27T10:54:53.558Z,22.9
2017-10-27T10:56:53.695Z,21.9
2017-10-27T10:58:53.945Z,22.9
2017-10-27T11:00:53.980Z,22.9
2017-10-27T11:02:54.116Z,22.4
2017-10-27T11:04:54.227Z,22.9
2017-10-27T11:06:54.381Z,22.9
2017-10-27T11:08:54.492Z,21.9
2017-10-27T11:10:54.615Z,22.9
2017-10-27T11:12:54.847Z,21.9
2017-10-27T11:14:54.922Z,22.4
2017-10-27T11:16:55.057Z,21.9
2017-10-27T11:18:55.255Z,22.9
2017-10-27T11:20:55.291Z,22.9
2017-10-27T11:22:55.434Z,21.9
2017-10-27T11:24:55.664Z,22.9
2017-10-27T11:26:55.865Z,22.4
2017-10-27T11:28:55.965Z,21.9
2017-10-27T11:30:56.094Z,21.9
2017-10-27T11:32:56.228Z,22.9
2017-10-27T11:34:56.405Z,22.9
2017-10-27T11:36:56.497Z,22.9
2017-10-27T11:38:56.658Z,22.9
2017-10-27T11:40:56.821Z,22.9
2017-10-27T11:42:56.901Z,22.9
2017-10-27T11:44:57.063Z,22.9
2017-10-27T11:46:57.222Z,22.9
2017-10-27T11:48:57.356Z,22.9
2017-10-27T11:50:57.585Z,22.4
2017-10-27T11:52:57.654Z,22.9
2017-10-27T11:54:57.740Z,22.9
2017-10-27T11:56:57.913Z,22.9
2017-10-27T11:58:58.024Z,22.9
2017-10-27T12:00:58.229Z,22.9
2017-10-27T12:02:58.389Z,22.9
2017-10-27T12:04:58.668Z,22.9
2017-10-27T12:06:58.634Z,23.5
2017-10-27T12:08:58.774Z,23.5
2017-10-27T12:10:58.934Z,22.9
2017-10-27T12:12:59.087Z,22.9
2017-10-27T12:14:59.154Z,22.9
2017-10-27T12:16:59.330Z,23.5
2017-10-27T12:18:59.443Z,22.9
2017-10-27T12:20:59.554Z,22.9
2017-10-27T12:22:59.764Z,22.9
2017-10-27T12:24:59.851Z,23.5
2017-10-27T12:27:00.002Z,22.9
2017-10-27T12:29:00.094Z,22.9
2017-10-27T12:31:00.207Z,23.5
2017-10-27T12:33:00.371Z,22.9
2017-10-27T12:35:00.510Z,22.9
2017-10-27T12:37:00.734Z,23.5
2017-10-27T12:39:00.841Z,22.9
2017-10-27T12:41:00.990Z,22.9
2017-10-27T12:43:01.279Z,22.9
2017-10-27T12:45:01.864Z,23.5
2017-10-27T12:47:02.038Z,23.5
2017-10-27T12:49:02.238Z,23.5
2017-10-27T12:51:02.338Z,23.5
2017-10-27T12:53:02.705Z,23.5
2017-10-27T12:55:02.914Z,23.5
2017-10-27T12:57:03.044Z,22.9
2017-10-27T12:59:03.207Z,23.5
2017-10-27T13:01:03.413Z,23.5
2017-10-27T13:03:03.668Z,23.5
2017-10-27T13:05:03.706Z,23.5
2017-10-27T13:07:03.837Z,23.5
2017-10-27T13:09:03.944Z,23.5
2017-10-27T13:11:04.071Z,23.5
2017-10-27T13:13:04.194Z,23.5
2017-10-27T13:15:04.343Z,23.5
2017-10-27T13:17:04.457Z,23.5
2017-10-27T13:19:04.563Z,23.5
2017-10-27T13:21:04.695Z,23.5
2017-10-27T13:23:04.801Z,24.5
2017-10-27T13:25:05.019Z,24
2017-10-27T13:27:05.132Z,23.5
2017-10-27T13:29:05.325Z,23.5
2017-10-27T13:31:05.553Z,24
2017-10-27T13:33:05.939Z,23.5
2017-10-27T13:35:06.061Z,24
2017-10-27T13:37:06.129Z,24
2017-10-27T13:39:06.232Z,23.5
2017-10-27T13:41:06.402Z,23.5
2017-10-27T13:43:06.475Z,23.5
2017-10-27T13:45:06.588Z,23.5
2017-10-27T13:47:06.782Z,24
2017-10-27T13:49:06.938Z,23.5
2017-10-27T13:51:07.266Z,23.5
2017-10-27T13:53:07.168Z,23.5
2017-10-27T13:55:07.333Z,23.5
2017-10-27T13:57:07.424Z,23.5
2017-10-27T13:59:07.542Z,23.5
2017-10-27T14:01:07.730Z,23.5
2017-10-27T14:03:07.812Z,23.5
2017-10-27T14:05:07.932Z,22.9
2017-10-27T14:07:08.205Z,22.9
2017-10-27T14:09:08.178Z,23.5
2017-10-27T14:11:08.332Z,23.5
2017-10-27T14:13:08.461Z,22.9
2017-10-27T14:15:08.551Z,23.5
2017-10-27T14:17:08.676Z,22.9
2017-10-27T14:19:08.842Z,22.9
2017-10-27T14:21:08.922Z,23.5
2017-10-27T14:23:09.053Z,22.9
2017-10-27T14:25:09.590Z,23.5
2017-10-27T14:27:09.301Z,22.9
2017-10-27T14:29:09.545Z,22.9
2017-10-27T14:31:09.707Z,22.9
2017-10-27T14:33:09.866Z,22.9
2017-10-27T14:35:10.017Z,22.9
2017-10-27T14:37:10.105Z,22.9
2017-10-27T14:39:10.325Z,22.9
2017-10-27T14:41:10.444Z,22.9
2017-10-27T14:43:10.658Z,23.5
2017-10-27T14:45:10.749Z,23.5
2017-10-27T14:47:10.935Z,22.9
2017-10-27T14:49:11.020Z,23.5
2017-10-27T14:51:11.128Z,22.9
2017-10-27T14:53:11.287Z,22.4
2017-10-27T14:55:11.402Z,22.9
2017-10-27T14:57:11.544Z,22.9
2017-10-27T14:59:11.629Z,21.9
2017-10-27T15:01:11.769Z,21.9
2017-10-27T15:03:12.032Z,22.9
2017-10-27T15:05:12.093Z,22.9
2017-10-27T15:07:12.180Z,22.4
2017-10-27T15:09:12.356Z,22.9
2017-10-27T15:11:12.475Z,22.9
2017-10-27T15:13:12.593Z,22.9
2017-10-27T15:15:12.701Z,22.9
2017-10-27T15:17:12.968Z,22.9
2017-10-27T15:19:13.031Z,21.9
2017-10-27T15:21:13.093Z,21.9
2017-10-27T15:23:13.387Z,21.9
2017-10-27T15:25:13.334Z,22.4
2017-10-27T15:27:13.456Z,21.9
2017-10-27T15:29:13.611Z,22.4
2017-10-27T15:31:13.761Z,22.9
2017-10-27T15:33:13.913Z,22.4
2017-10-27T15:35:14.081Z,22.9
2017-10-27T15:37:14.212Z,22.9
2017-10-27T15:39:14.272Z,22.4
2017-10-27T15:41:14.425Z,22.4
2017-10-27T15:43:14.617Z,22.4
2017-10-27T15:45:14.709Z,22.4
2017-10-27T15:47:14.854Z,21.9
2017-10-27T15:49:15.153Z,21.9
2017-10-27T15:51:15.121Z,22.4
2017-10-27T15:53:15.307Z,22.4
2017-10-27T15:55:15.424Z,21.9
2017-10-27T15:57:15.577Z,22.9
2017-10-27T15:59:15.735Z,21.9
2017-10-27T16:01:15.843Z,21.9
2017-10-27T16:03:15.989Z,21.9
2017-10-27T16:05:16.159Z,21.9
2017-10-27T16:07:16.251Z,21.9
2017-10-27T16:09:16.399Z,22.4
2017-10-27T16:11:16.665Z,22.4
2017-10-27T16:13:16.766Z,21.9
2017-10-27T16:15:17.003Z,22.4
2017-10-27T16:17:17.281Z,21.9
2017-10-27T16:19:17.366Z,21.9
2017-10-27T16:21:17.530Z,21.9
2017-10-27T16:23:17.675Z,21.9
2017-10-27T16:25:17.797Z,21.9
2017-10-27T16:27:17.953Z,21.299999999999997
2017-10-27T16:29:18.300Z,21.9
2017-10-27T16:31:18.251Z,22.4
2017-10-27T16:33:18.426Z,21.9
2017-10-27T16:35:18.556Z,21.9
2017-10-27T16:37:18.660Z,21.9
2017-10-27T16:39:18.776Z,22.4
2017-10-27T16:41:18.897Z,21.9
2017-10-27T16:43:19.014Z,21.9
2017-10-27T16:45:19.146Z,21.9
2017-10-27T16:47:19.266Z,20.799999999999997
2017-10-27T16:49:19.390Z,21.9
2017-10-27T16:51:19.612Z,21.299999999999997
2017-10-27T16:53:19.707Z,21.9
2017-10-27T16:55:19.803Z,21.9
2017-10-27T16:57:19.970Z,21.9
2017-10-27T16:59:20.264Z,21.9
2017-10-27T17:01:20.422Z,21.299999999999997
2017-10-27T17:03:20.569Z,21.9
2017-10-27T17:05:20.759Z,21.299999999999997
2017-10-27T17:07:20.881Z,21.9
2017-10-27T17:09:20.996Z,21.299999999999997
2017-10-27T17:11:21.182Z,21.9
2017-10-27T17:13:21.285Z,20.799999999999997
2017-10-27T17:15:21.412Z,20.799999999999997
2017-10-27T17:17:21.527Z,20.799999999999997
2017-10-27T17:19:21.665Z,20.799999999999997
2017-10-27T17:21:21.795Z,20.799999999999997
2017-10-27T17:23:21.924Z,20.799999999999997
2017-10-27T17:25:22.197Z,21.299999999999997
2017-10-27T17:27:22.339Z,21.299999999999997
2017-10-27T17:29:22.452Z,21.299999999999997
2017-10-27T17:31:22.594Z,20.799999999999997
2017-10-27T17:33:22.720Z,20.799999999999997
2017-10-27T17:35:22.826Z,20.799999999999997
2017-10-27T17:37:23.058Z,21.299999999999997
2017-10-27T17:39:23.232Z,20.799999999999997
2017-10-27T17:41:23.296Z,20.799999999999997
2017-10-27T17:43:23.491Z,20.799999999999997
2017-10-27T17:45:23.625Z,20.799999999999997
2017-10-27T17:47:23.749Z,20.799999999999997
2017-10-27T17:49:23.920Z,21.299999999999997
2017-10-27T17:51:23.974Z,20.799999999999997
2017-10-27T17:53:24.093Z,20.799999999999997
2017-10-27T17:55:24.246Z,20.799999999999997
2017-10-27T17:57:24.346Z,20.799999999999997
2017-10-27T17:59:24.493Z,20.799999999999997
2017-10-27T18:01:24.652Z,21.299999999999997
2017-10-27T18:03:24.782Z,21.299999999999997
2017-10-27T18:05:24.869Z,20.799999999999997
2017-10-27T18:07:25.026Z,20.799999999999997
2017-10-27T18:09:25.264Z,20.799999999999997
2017-10-27T18:11:25.435Z,21.299999999999997
2017-10-27T18:13:25.574Z,21.299999999999997
2017-10-27T18:15:25.663Z,20.799999999999997
2017-10-27T18:17:25.754Z,20.799999999999997
2017-10-27T18:19:26.075Z,20.799999999999997
2017-10-27T18:21:26.159Z,20.799999999999997
2017-10-27T18:23:26.248Z,20.799999999999997
2017-10-27T18:25:26.715Z,20.799999999999997
2017-10-27T18:27:26.493Z,21.299999999999997
2017-10-27T18:29:26.601Z,20.799999999999997
2017-10-27T18:31:26.732Z,21.299999999999997
2017-10-27T18:33:26.885Z,20.799999999999997
2017-10-27T18:35:27.013Z,20.799999999999997
2017-10-27T18:37:27.130Z,20.799999999999997
2017-10-27T18:39:27.299Z,20.799999999999997
2017-10-27T18:41:27.402Z,20.799999999999997
2017-10-27T18:43:27.543Z,21.299999999999997
2017-10-27T18:45:27.741Z,20.799999999999997
2017-10-27T18:47:27.788Z,20.799999999999997
2017-10-27T18:49:27.903Z,20.799999999999997
2017-10-27T18:51:28.077Z,20.799999999999997
2017-10-27T18:53:28.183Z,20.799999999999997
2017-10-27T18:55:28.313Z,20.799999999999997
2017-10-27T18:57:28.434Z,20.799999999999997
2017-10-27T18:59:28.581Z,20.799999999999997
2017-10-27T19:01:28.662Z,20.799999999999997
2017-10-27T19:03:28.837Z,20.799999999999997
2017-10-27T19:05:28.918Z,20.799999999999997
2017-10-27T19:07:29.097Z,20.799999999999997
2017-10-27T19:09:29.390Z,20.799999999999997
2017-10-27T19:11:29.331Z,20.799999999999997
2017-10-27T19:13:29.563Z,20.799999999999997
2017-10-27T19:15:29.672Z,20.799999999999997
2017-10-27T19:17:29.836Z,20.799999999999997
2017-10-27T19:19:29.961Z,20.799999999999997
2017-10-27T19:21:30.078Z,20.799999999999997
2017-10-27T19:23:30.315Z,20.799999999999997
2017-10-27T19:25:30.324Z,20.799999999999997
2017-10-27T19:27:30.486Z,20.799999999999997
2017-10-27T19:29:30.666Z,20.799999999999997
2017-10-27T19:31:30.748Z,20.799999999999997
2017-10-27T19:33:30.882Z,20.799999999999997
2017-10-27T19:35:31.083Z,20.799999999999997
2017-10-27T19:37:31.331Z,20.200000000000003
2017-10-27T19:39:31.592Z,20.799999999999997
2017-10-27T19:41:31.626Z,20.799999999999997
2017-10-27T19:43:31.728Z,20.799999999999997
2017-10-27T19:45:31.820Z,20.200000000000003
2017-10-27T19:47:31.932Z,20.799999999999997
2017-10-27T19:49:32.100Z,20.799999999999997
2017-10-27T19:51:32.406Z,19.700000000000003
2017-10-27T19:53:32.340Z,19.700000000000003
2017-10-27T19:55:32.466Z,20.799999999999997
2017-10-27T19:57:32.623Z,20.799999999999997
2017-10-27T19:59:34.104Z,20.799999999999997
2017-10-27T20:01:32.892Z,20.799999999999997
2017-10-27T20:03:33.029Z,20.799999999999997
2017-10-27T20:05:33.155Z,20.799999999999997
2017-10-27T20:07:33.326Z,20.799999999999997
2017-10-27T20:09:34.160Z,20.799999999999997
2017-10-27T20:11:33.587Z,19.700000000000003
2017-10-27T20:13:33.699Z,20.799999999999997
2017-10-27T20:15:33.870Z,20.200000000000003
2017-10-27T20:17:34.006Z,20.799999999999997
2017-10-27T20:19:34.274Z,20.799999999999997
2017-10-27T20:21:34.301Z,20.799999999999997
2017-10-27T20:23:34.452Z,20.799999999999997
2017-10-27T20:25:34.605Z,20.799999999999997
2017-10-27T20:27:34.738Z,20.799999999999997
2017-10-27T20:29:34.944Z,20.799999999999997
2017-10-27T20:31:35.914Z,21.299999999999997
2017-10-27T20:33:35.265Z,20.799999999999997
2017-10-27T20:35:35.388Z,20.799999999999997
2017-10-27T20:37:36.456Z,19.700000000000003
2017-10-27T20:39:35.934Z,20.799999999999997
2017-10-27T20:41:35.977Z,20.799999999999997
2017-10-27T20:43:36.228Z,19.700000000000003
2017-10-27T20:45:36.310Z,20.799999999999997
2017-10-27T20:47:36.741Z,20.200000000000003
2017-10-27T20:49:36.699Z,20.799999999999997
2017-10-27T20:51:36.882Z,19.700000000000003
2017-10-27T20:53:37.055Z,20.799999999999997
2017-10-27T20:55:37.000Z,20.799999999999997
2017-10-27T20:57:37.179Z,20.799999999999997
2017-10-27T20:59:37.365Z,20.799999999999997
2017-10-27T21:01:37.626Z,20.799999999999997
2017-10-27T21:03:37.623Z,21.299999999999997
2017-10-27T21:05:37.764Z,20.799999999999997
2017-10-27T21:07:37.835Z,21.299999999999997
2017-10-27T21:09:37.993Z,20.799999999999997
2017-10-27T21:11:38.155Z,20.200000000000003
2017-10-27T21:13:38.239Z,20.799999999999997
2017-10-27T21:15:38.358Z,20.799999999999997
2017-10-27T21:17:38.457Z,20.799999999999997